Time;durP1;ratioP1;P1;durP2;ratioP2;P2;SDS_P1;SDS_P2;PMS_P1;PMS_P2;Temp;Humidity;BMP_temperature;BMP_pressure;BME280_temperature;BME280_humidity;BME280_pressure;Samples;Min_cycle;Max_cycle;Signal;HPM_P1;HPM_P2
2022/09/18 22:26:46;;;;;;;;;;;;;;;;;;1023413;23;3923;-58
2022/09/18 22:30:08;;;;;;;;;;;;;;;;;;1014289;23;4055;-54
2022/09/18 22:30:52;;;;;;;;;;;;;;;;;;1019268;28;4058;-54
2022/09/18 22:31:23;;;;;;;;;;;;;;;;;;1016008;28;4133;-60
2022/09/18 22:31:54;;;;;;;;;;;;;;;;;;1016074;28;3415;-58
2022/09/18 22:32:25;;;;;;;;;;;;;;;;;;1016796;29;4058;-58
2022/09/18 22:32:55;;;;;;;;;;;;;;;;;;1020928;28;2916;-58
2022/09/18 22:33:26;;;;;;;;;;;;;;;;;;1018325;28;3928;-58
2022/09/18 22:33:56;;;;;;;;;;;;;;;;;;1019437;28;2984;-58
2022/09/18 22:34:28;;;;;;;;;;;;;;;;;;1018006;28;4275;-57
2022/09/18 22:34:58;;;;;;;;;;;;;;;;;;1022034;28;2934;-58
2022/09/18 22:35:28;;;;;;;;;;;;;;;;;;1021688;28;4098;-58
2022/09/18 22:36:03;;;;;;;;;;;;;;;;;;1021086;28;3003;-56
2022/09/18 22:36:33;;;;;;;;;;;;;;;;;;1021624;28;4139;-56
2022/09/18 22:37:04;;;;;;;;;;;;;;;;;;1021604;28;3184;-57
2022/09/18 22:37:34;;;;;;;;;;;;;;;;;;1024014;28;3844;-55
2022/09/18 22:38:04;;;;;;;;;;;;;;;;;;1025881;28;2381;-56
2022/09/18 22:38:34;;;;;;;;;;;;;;;;;;1024738;28;3903;-58
2022/09/18 22:39:05;;;;;;;;;;;;;;;;;;1025177;28;1787;-59
2022/09/18 22:39:35;;;;;;;;;;;;;;;;;;1024569;28;3966;-54
2022/09/18 22:40:07;;;;;;;;;;;;;;;;;;1025109;28;4093;-55
2022/09/18 22:40:37;;;;;;;;;;;;;;;;;;1024292;28;3648;-57
2022/09/18 22:41:08;;;;;;;;;;;;;;;;;;1025445;28;4080;-59
2022/09/18 22:41:38;;;;;;;;;;;;;;;;;;1025850;28;3277;-57
2022/09/18 22:42:08;;;;;;;;;;;;;;;;;;1027161;28;4117;-54
2022/09/18 22:42:39;;;;;;;;;;;;;;;;;;1028484;28;3042;-55
2022/09/18 22:43:09;;;;;;;;;;;;;;;;;;1028226;28;3928;-53
2022/09/18 22:43:39;;;;;;;;;;;;;;;;;;1025112;28;1678;-57
2022/09/18 22:44:10;;;;;;;;;;;;;;;;;;1023886;28;3847;-55
2022/09/18 22:44:40;;;;;;;;;;;;;;;;;;1024724;28;3077;-54
2022/09/18 22:45:10;;;;;;;;;;;;;;;;;;1023373;28;3925;-56
2022/09/18 22:45:40;;;;;;;;;;;;;;;;;;1030385;28;2287;-55
2022/09/18 22:46:12;;;;;;;;;;;;;;;;;;1028401;28;3811;-56
2022/09/18 22:46:43;;;;;;;;;;;;;;;;;;1029706;28;3493;-54
2022/09/18 22:47:14;;;;;;;;;;;;;;;;;;1026193;28;3926;-58
2022/09/18 22:47:44;;;;;;;;;;;;;;;;;;1027453;28;3513;-55
2022/09/18 22:48:14;;;;;;;;;;;;;;;;;;1026583;28;3931;-56
2022/09/18 22:48:44;;;;;;;;;;;;;;;;;;1028281;28;2740;-58
2022/09/18 22:49:16;;;;;;;;;;;;;;;;;;1029482;28;4157;-56
2022/09/18 22:49:46;;;;;;;;;;;;;;;;;;1029508;28;3573;-56
2022/09/18 22:50:16;;;;;;;;;;;;;;;;;;1028714;28;3993;-57
2022/09/18 22:50:46;;;;;;;;;;;;;;;;;;1028857;28;1910;-58
2022/09/18 22:51:18;;;;;;;;;;;;;;;;;;1025240;28;3942;-59
2022/09/18 22:51:49;;;;;;;;;;;;;;;;;;1026677;28;2430;-56
2022/09/18 22:52:19;;;;;;;;;;;;;;;;;;1023943;28;4124;-57
2022/09/18 22:52:50;;;;;;;;;;;;;;;;;;1028995;28;3058;-56
2022/09/18 22:53:20;;;;;;;;;;;;;;;;;;1027794;28;4064;-57
2022/09/18 22:53:53;;;;;;;;;;;;;;;;;;1029391;28;2575;-57
2022/09/18 22:54:24;;;;;;;;;;;;;;;;;;1028755;28;4179;-58
2022/09/18 22:54:55;;;;;;;;;;;;;;;;;;1028803;28;2575;-55
2022/09/18 22:55:26;;;;;;;;;;;;;;;;;;1028399;28;3907;-56
2022/09/18 22:56:00;;;;;;;;;;;;;;;;;;1028854;28;3260;-57
2022/09/18 22:56:30;;;;;;;;;;;;;;;;;;1028391;28;4058;-58
2022/09/18 22:57:01;;;;;;;;;;;;;;;;;;1029893;28;2853;-55
2022/09/18 22:57:31;;;;;;;;;;;;;;;;;;1028797;28;4055;-56
2022/09/18 22:58:05;;;;;;;;;;;;;;;;;;1029782;28;2077;-54
2022/09/18 22:58:35;;;;;;;;;;;;;;;;;;1029300;28;3863;-58
2022/09/18 22:59:06;;;;;;;;;;;;;;;;;;1028250;28;3814;-57
2022/09/18 22:59:36;;;;;;;;;;;;;;;;;;1025043;28;2985;-56
2022/09/18 23:00:07;;;;;;;;;;;;;;;;;;1024228;28;3927;-57
2022/09/18 23:00:37;;;;;;;;;;;;;;;;;;1026443;28;2327;-56
2022/09/18 23:01:17;;;;;;;;;;;;;;;;;;1024407;28;4104;-57
2022/09/18 23:01:52;;;;;;;;;;;;;;;;;;1029364;28;3328;-58
2022/09/18 23:02:22;;;;;;;;;;;;;;;;;;1029417;28;4045;-55
2022/09/18 23:02:53;;;;;;;;;;;;;;;;;;1030730;28;2443;-57
2022/09/18 23:03:23;;;;;;;;;;;;;;;;;;1029784;28;4087;-58
2022/09/18 23:03:55;;;;;;;;;;;;;;;;;;1031577;28;1596;-56
2022/09/18 23:04:27;;;;;;;;;;;;;;;;;;1029239;28;4084;-54
2022/09/18 23:04:58;;;;;;;;;;;;;;;;;;1026442;28;3113;-57
2022/09/18 23:05:28;;;;;;;;;;;;;;;;;;1023810;28;4035;-58
2022/09/18 23:05:59;;;;;;;;;;;;;;;;;;1025091;28;2703;-56
2022/09/18 23:06:37;;;;;;;;;;;;;;;;;;1024271;28;3835;-55
2022/09/18 23:07:07;;;;;;;;;;;;;;;;;;1028682;28;3957;-57
2022/09/18 23:07:38;;;;;;;;;;;;;;;;;;1029615;28;2497;-56
2022/09/18 23:08:10;;;;;;;;;;;;;;;;;;1029399;28;4463;-54
2022/09/18 23:08:41;;;;;;;;;;;;;;;;;;1030656;28;2751;-53
2022/09/18 23:09:15;;;;;;;;;;;;;;;;;;1029177;28;3800;-55
2022/09/18 23:09:46;;;;;;;;;;;;;;;;;;1029791;28;2848;-56
2022/09/18 23:10:17;;;;;;;;;;;;;;;;;;1029357;28;3829;-56
2022/09/18 23:10:47;;;;;;;;;;;;;;;;;;1029336;28;3237;-55
2022/09/18 23:11:19;;;;;;;;;;;;;;;;;;1029773;28;3971;-54
2022/09/18 23:11:51;;;;;;;;;;;;;;;;;;1029463;28;1849;-56
2022/09/18 23:12:22;;;;;;;;;;;;;;;;;;1029552;28;3872;-55
2022/09/18 23:12:52;;;;;;;;;;;;;;;;;;1028757;28;3033;-56
2022/09/18 23:13:23;;;;;;;;;;;;;;;;;;1030106;28;4567;-55
2022/09/18 23:13:55;;;;;;;;;;;;;;;;;;1030616;28;2790;-57
2022/09/18 23:14:26;;;;;;;;;;;;;;;;;;1029543;28;3946;-55
2022/09/18 23:14:56;;;;;;;;;;;;;;;;;;1029591;28;2624;-55
2022/09/18 23:15:27;;;;;;;;;;;;;;;;;;1028702;28;3948;-56
2022/09/18 23:16:04;;;;;;;;;;;;;;;;;;1029997;28;2619;-58
2022/09/18 23:16:35;;;;;;;;;;;;;;;;;;1028874;28;3863;-57
2022/09/18 23:17:05;;;;;;;;;;;;;;;;;;1029587;28;3955;-55
2022/09/18 23:17:36;;;;;;;;;;;;;;;;;;1029883;28;2549;-57
2022/09/18 23:18:06;;;;;;;;;;;;;;;;;;1028493;28;3960;-54
2022/09/18 23:18:37;;;;;;;;;;;;;;;;;;1025876;28;2379;-56
2022/09/18 23:19:11;;;;;;;;;;;;;;;;;;1025753;28;3897;-58
2022/09/18 23:19:42;;;;;;;;;;;;;;;;;;1024991;28;3026;-57
2022/09/18 23:20:14;;;;;;;;;;;;;;;;;;1027347;28;4036;-54
2022/09/18 23:20:44;;;;;;;;;;;;;;;;;;1030057;28;2576;-57
2022/09/18 23:21:14;;;;;;;;;;;;;;;;;;1028543;28;3940;-56
2022/09/18 23:21:45;;;;;;;;;;;;;;;;;;1028613;28;2819;-55
2022/09/18 23:22:16;;;;;;;;;;;;;;;;;;1027574;28;4174;-57
2022/09/18 23:22:46;;;;;;;;;;;;;;;;;;1027626;28;3260;-57
2022/09/18 23:23:16;;;;;;;;;;;;;;;;;;1030015;28;3909;-54
2022/09/18 23:23:47;;;;;;;;;;;;;;;;;;1030037;28;1648;-56
2022/09/18 23:24:17;;;;;;;;;;;;;;;;;;1029476;28;3920;-54
2022/09/18 23:24:48;;;;;;;;;;;;;;;;;;1029824;28;2524;-58
2022/09/18 23:25:18;;;;;;;;;;;;;;;;;;1028922;28;4093;-56
2022/09/18 23:25:48;;;;;;;;;;;;;;;;;;1029597;28;2727;-56
2022/09/18 23:26:22;;;;;;;;;;;;;;;;;;1026187;28;4945;-57
2022/09/18 23:26:54;;;;;;;;;;;;;;;;;;1027512;28;2835;-53
2022/09/18 23:27:24;;;;;;;;;;;;;;;;;;1024495;28;3897;-57
2022/09/18 23:27:54;;;;;;;;;;;;;;;;;;1027080;28;3385;-58
2022/09/18 23:28:25;;;;;;;;;;;;;;;;;;1027661;28;4209;-55
2022/09/18 23:28:56;;;;;;;;;;;;;;;;;;1027761;28;2800;-54
2022/09/18 23:29:27;;;;;;;;;;;;;;;;;;1029510;28;4096;-55
2022/09/18 23:30:04;;;;;;;;;;;;;;;;;;1028484;28;2666;-55
2022/09/18 23:30:41;;;;;;;;;;;;;;;;;;1030566;28;3841;-57
2022/09/18 23:31:19;;;;;;;;;;;;;;;;;;1031032;28;3880;-58
2022/09/18 23:31:56;;;;;;;;;;;;;;;;;;1032485;28;2539;-57
2022/09/18 23:32:26;;;;;;;;;;;;;;;;;;1030635;28;3807;-56
2022/09/18 23:32:56;;;;;;;;;;;;;;;;;;1032866;28;2670;-55
2022/09/18 23:33:27;;;;;;;;;;;;;;;;;;1030933;28;3880;-59
2022/09/18 23:33:58;;;;;;;;;;;;;;;;;;1033066;28;2714;-57
2022/09/18 23:34:30;;;;;;;;;;;;;;;;;;1031242;28;3907;-57
2022/09/18 23:35:00;;;;;;;;;;;;;;;;;;1033365;28;2663;-58
2022/09/18 23:35:31;;;;;;;;;;;;;;;;;;1026416;28;3918;-59
2022/09/18 23:36:08;;;;;;;;;;;;;;;;;;1028870;28;2637;-58
2022/09/18 23:36:40;;;;;;;;;;;;;;;;;;1026514;28;3809;-56
2022/09/18 23:37:10;;;;;;;;;;;;;;;;;;1027523;28;3964;-56
2022/09/18 23:37:40;;;;;;;;;;;;;;;;;;1031176;28;3108;-58
2022/09/18 23:38:10;;;;;;;;;;;;;;;;;;1032982;28;4072;-55
2022/09/18 23:38:41;;;;;;;;;;;;;;;;;;1032636;28;2505;-56
2022/09/18 23:39:20;;;;;;;;;;;;;;;;;;1031412;28;4091;-57
2022/09/18 23:39:50;;;;;;;;;;;;;;;;;;1027338;28;3044;-56
2022/09/18 23:40:20;;;;;;;;;;;;;;;;;;1027942;28;4098;-57
2022/09/18 23:40:57;;;;;;;;;;;;;;;;;;1027781;28;3131;-55
2022/09/18 23:41:35;;;;;;;;;;;;;;;;;;1027223;28;3877;-57
2022/09/18 23:42:07;;;;;;;;;;;;;;;;;;1032255;28;2754;-55
2022/09/18 23:42:37;;;;;;;;;;;;;;;;;;1028307;28;5251;-55
2022/09/18 23:43:08;;;;;;;;;;;;;;;;;;1028493;28;3937;-57
2022/09/18 23:43:39;;;;;;;;;;;;;;;;;;1029013;28;3298;-56
2022/09/18 23:44:10;;;;;;;;;;;;;;;;;;1028286;28;3931;-56
2022/09/18 23:44:40;;;;;;;;;;;;;;;;;;1031669;28;3211;-55
2022/09/18 23:45:10;;;;;;;;;;;;;;;;;;1029074;28;3841;-55
2022/09/18 23:45:41;;;;;;;;;;;;;;;;;;1032254;28;2822;-58
2022/09/18 23:46:11;;;;;;;;;;;;;;;;;;1030962;28;3919;-58
2022/09/18 23:46:42;;;;;;;;;;;;;;;;;;1032436;28;2932;-57
2022/09/18 23:47:12;;;;;;;;;;;;;;;;;;1028822;28;4152;-57
2022/09/18 23:47:42;;;;;;;;;;;;;;;;;;1028199;28;3111;-57
2022/09/18 23:48:19;;;;;;;;;;;;;;;;;;1027695;28;4072;-56
2022/09/18 23:48:53;;;;;;;;;;;;;;;;;;1031267;28;2276;-56
2022/09/18 23:49:24;;;;;;;;;;;;;;;;;;1030599;28;3878;-57
2022/09/18 23:49:55;;;;;;;;;;;;;;;;;;1032493;28;2742;-57
2022/09/18 23:50:25;;;;;;;;;;;;;;;;;;1031661;28;4182;-56
2022/09/18 23:50:57;;;;;;;;;;;;;;;;;;1033199;28;2714;-58
2022/09/18 23:51:29;;;;;;;;;;;;;;;;;;1031358;28;3876;-57
2022/09/18 23:52:01;;;;;;;;;;;;;;;;;;1032797;28;2730;-56
2022/09/18 23:52:31;;;;;;;;;;;;;;;;;;1030784;28;4057;-58
2022/09/18 23:53:01;;;;;;;;;;;;;;;;;;1032337;28;2564;-56
2022/09/18 23:53:32;;;;;;;;;;;;;;;;;;1032083;28;3944;-57
2022/09/18 23:54:04;;;;;;;;;;;;;;;;;;1031633;28;3083;-57
2022/09/18 23:54:34;;;;;;;;;;;;;;;;;;1031493;28;4023;-57
2022/09/18 23:55:04;;;;;;;;;;;;;;;;;;1032594;28;2673;-55
2022/09/18 23:55:35;;;;;;;;;;;;;;;;;;1030547;28;3984;-57
2022/09/18 23:56:07;;;;;;;;;;;;;;;;;;1031803;28;3272;-57
2022/09/18 23:56:37;;;;;;;;;;;;;;;;;;1031456;28;3796;-57
2022/09/18 23:57:07;;;;;;;;;;;;;;;;;;1031172;28;3960;-57
2022/09/18 23:57:38;;;;;;;;;;;;;;;;;;1036075;28;2617;-56
2022/09/18 23:58:08;;;;;;;;;;;;;;;;;;1035810;28;4102;-57
2022/09/18 23:58:39;;;;;;;;;;;;;;;;;;1035702;28;2500;-55
2022/09/18 23:59:10;;;;;;;;;;;;;;;;;;1034736;28;3919;-55
2022/09/18 23:59:40;;;;;;;;;;;;;;;;;;1031632;28;2888;-56
